createdAt,value
2022-08-01T00:00:15.347Z,1.90
2022-08-01T00:02:42.451Z,1.77
2022-08-01T00:05:10.125Z,1.80
2022-08-01T00:07:37.913Z,1.77
2022-08-01T00:10:06.711Z,2.13
2022-08-01T00:12:33.612Z,2.10
2022-08-01T00:15:00.596Z,1.80
2022-08-01T00:17:27.840Z,2.43
2022-08-01T00:19:54.736Z,1.83
2022-08-01T00:22:21.682Z,1.90
2022-08-01T00:24:48.551Z,1.80
2022-08-01T00:27:15.455Z,1.93
2022-08-01T00:30:10.916Z,1.70
2022-08-01T00:32:32.384Z,1.60
2022-08-01T00:34:59.462Z,1.87
2022-08-01T00:37:26.487Z,1.97
2022-08-01T00:39:53.500Z,1.87
2022-08-01T00:42:20.431Z,1.87
2022-08-01T00:44:48.450Z,1.90
2022-08-01T00:47:15.388Z,1.70
2022-08-01T00:49:42.474Z,1.90
2022-08-01T00:52:10.639Z,1.57
2022-08-01T00:54:37.818Z,1.90
2022-08-01T00:57:05.574Z,1.50
2022-08-01T00:59:39.863Z,2.33
2022-08-01T01:02:14.706Z,2.17
2022-08-01T01:04:42.751Z,3.03
2022-08-01T01:07:14.304Z,2.10
2022-08-01T01:09:46.044Z,2.37
2022-08-01T01:12:38.802Z,1.90
2022-08-01T01:15:15.623Z,2.20
2022-08-01T01:17:56.287Z,2.17
2022-08-01T01:20:28.758Z,2.27
2022-08-01T01:23:13.660Z,2.30
2022-08-01T01:26:02.966Z,1.80
2022-08-01T01:28:42.617Z,2.27
2022-08-01T01:31:14.134Z,1.90
2022-08-01T01:33:45.347Z,2.27
2022-08-01T01:36:15.645Z,2.70
2022-08-01T01:38:45.216Z,2.17
2022-08-01T01:41:15.139Z,2.10
2022-08-01T01:43:43.405Z,1.97
2022-08-01T01:46:13.558Z,2.50
2022-08-01T01:48:43.995Z,2.10
2022-08-01T01:51:11.951Z,2.00
2022-08-01T01:53:40.863Z,2.00
2022-08-01T01:56:09.690Z,2.43
2022-08-01T01:58:39.938Z,2.30
2022-08-01T02:01:14.557Z,2.07
2022-08-01T02:03:44.385Z,2.10
2022-08-01T02:06:13.999Z,2.43
2022-08-01T02:08:43.171Z,2.40
2022-08-01T02:11:19.042Z,2.17
2022-08-01T02:14:02.049Z,1.97
2022-08-01T02:16:32.875Z,2.50
2022-08-01T02:19:00.896Z,1.80
2022-08-01T02:22:12.553Z,2.13
2022-08-01T02:25:06.591Z,2.10
2022-08-01T02:27:44.902Z,2.20
2022-08-01T02:30:15.108Z,1.97
2022-08-01T02:32:48.512Z,2.37
2022-08-01T02:35:24.293Z,2.53
2022-08-01T02:37:52.731Z,2.20
2022-08-01T02:40:19.991Z,1.90
2022-08-01T02:42:53.796Z,2.20
2022-08-01T02:45:25.443Z,1.83
2022-08-01T02:47:57.114Z,1.70
2022-08-01T02:50:27.359Z,2.00
2022-08-01T02:52:56.431Z,2.27
2022-08-01T02:55:23.830Z,2.20
2022-08-01T02:57:59.925Z,2.53
2022-08-01T03:00:29.079Z,2.03
2022-08-01T03:02:58.807Z,1.80
2022-08-01T03:05:27.048Z,1.90
2022-08-01T03:07:56.084Z,2.33
2022-08-01T03:10:24.160Z,2.50
2022-08-01T03:12:52.104Z,2.07
2022-08-01T03:15:20.443Z,2.30
2022-08-01T03:17:49.003Z,2.13
2022-08-01T03:20:17.559Z,2.10
2022-08-01T03:22:46.030Z,2.20
2022-08-01T03:25:14.780Z,2.00
2022-08-01T03:27:44.286Z,2.37
2022-08-01T03:30:12.376Z,2.20
2022-08-01T03:32:40.069Z,2.00
2022-08-01T03:35:07.963Z,2.50
2022-08-01T03:38:13.551Z,2.27
2022-08-01T03:40:40.368Z,2.20
2022-08-01T03:43:10.733Z,2.30
2022-08-01T03:45:42.758Z,1.83
2022-08-01T03:48:17.714Z,2.27
2022-08-01T03:50:47.872Z,1.87
2022-08-01T03:53:15.347Z,1.80
2022-08-01T03:55:44.447Z,2.33
2022-08-01T03:58:12.743Z,1.50
2022-08-01T04:00:40.650Z,2.17
2022-08-01T04:03:13.078Z,1.80
2022-08-01T04:05:43.505Z,2.10
2022-08-01T04:08:10.613Z,2.17
2022-08-01T04:10:38.575Z,2.30
2022-08-01T04:13:05.468Z,2.50
2022-08-01T04:15:32.551Z,2.10
2022-08-01T04:17:59.794Z,2.23
2022-08-01T04:20:26.680Z,2.40
2022-08-01T04:22:53.701Z,2.27
2022-08-01T04:25:29.231Z,2.37
2022-08-01T04:27:57.658Z,2.77
2022-08-01T04:30:28.672Z,2.40
2022-08-01T04:33:00.169Z,2.33
2022-08-01T04:36:02.709Z,2.00
2022-08-01T04:38:22.044Z,2.10
2022-08-01T04:40:53.410Z,2.87
2022-08-01T04:43:20.468Z,2.37
2022-08-01T04:45:48.859Z,2.00
2022-08-01T04:48:22.583Z,2.03
2022-08-01T04:50:50.057Z,2.40
2022-08-01T04:53:18.645Z,1.93
2022-08-01T04:55:47.173Z,1.87
2022-08-01T04:58:18.355Z,2.50
2022-08-01T05:00:47.115Z,2.40
2022-08-01T05:03:14.026Z,2.10
2022-08-01T05:05:40.998Z,2.40
2022-08-01T05:08:07.930Z,2.10
2022-08-01T05:10:35.814Z,2.10
2022-08-01T05:13:03.483Z,2.00
2022-08-01T05:15:30.498Z,1.83
2022-08-01T05:17:57.683Z,2.10
2022-08-01T05:20:24.691Z,1.90
2022-08-01T05:22:51.634Z,1.70
2022-08-01T05:25:20.193Z,2.00
2022-08-01T05:27:56.131Z,1.83
2022-08-01T05:30:23.090Z,1.63
2022-08-01T05:32:50.078Z,1.80
2022-08-01T05:35:16.914Z,2.00
2022-08-01T05:37:43.836Z,2.50
2022-08-01T05:40:11.268Z,1.77
2022-08-01T05:42:38.143Z,2.00
2022-08-01T05:45:05.479Z,1.80
2022-08-01T05:47:32.357Z,2.13
2022-08-01T05:49:59.609Z,2.13
2022-08-01T05:52:26.470Z,1.90
2022-08-01T05:54:53.378Z,1.70
2022-08-01T05:57:20.710Z,2.13
2022-08-01T05:59:47.611Z,2.17
2022-08-01T06:02:14.660Z,2.13
2022-08-01T06:04:41.590Z,1.80
2022-08-01T06:07:08.480Z,2.03
2022-08-01T06:09:35.406Z,2.10
2022-08-01T06:12:02.473Z,1.73
2022-08-01T06:14:29.560Z,1.63
2022-08-01T06:16:56.539Z,1.97
2022-08-01T06:19:23.443Z,2.60
2022-08-01T06:21:50.279Z,2.17
2022-08-01T06:24:17.449Z,2.13
2022-08-01T06:26:44.329Z,2.00
2022-08-01T06:29:11.320Z,2.20
2022-08-01T06:31:39.202Z,2.27
2022-08-01T06:34:06.078Z,2.17
2022-08-01T06:36:32.927Z,2.70
2022-08-01T06:38:59.770Z,2.57
2022-08-01T06:41:26.661Z,2.37
2022-08-01T06:43:53.538Z,2.40
2022-08-01T06:46:20.404Z,2.30
2022-08-01T06:48:47.309Z,2.40
2022-08-01T06:51:19.142Z,2.20
2022-08-01T06:53:45.965Z,1.90
2022-08-01T06:56:12.936Z,2.67
2022-08-01T06:58:39.877Z,2.10
2022-08-01T07:01:08.030Z,1.70
2022-08-01T07:03:53.343Z,1.80
2022-08-01T07:06:26.254Z,2.37
2022-08-01T07:08:54.255Z,1.67
2022-08-01T07:11:22.563Z,2.10
2022-08-01T07:13:49.865Z,1.60
2022-08-01T07:16:17.988Z,2.10
2022-08-01T07:18:44.867Z,1.60
2022-08-01T07:21:16.613Z,1.87
2022-08-01T07:23:59.225Z,1.87
2022-08-01T07:26:28.326Z,2.00
2022-08-01T07:28:55.431Z,1.50
2022-08-01T07:31:22.434Z,1.60
2022-08-01T07:33:49.581Z,1.50
2022-08-01T07:36:17.762Z,1.50
2022-08-01T07:38:45.602Z,1.77
2022-08-01T07:41:12.664Z,1.57
2022-08-01T07:43:39.550Z,1.73
2022-08-01T07:46:07.278Z,2.10
2022-08-01T07:48:34.741Z,1.60
2022-08-01T07:51:01.643Z,2.30
2022-08-01T07:53:28.591Z,1.80
2022-08-01T07:55:55.479Z,1.90
2022-08-01T07:58:22.362Z,1.60
2022-08-01T08:00:49.350Z,1.50
2022-08-01T08:03:16.250Z,1.60
2022-08-01T08:05:51.275Z,1.67
2022-08-01T08:08:26.010Z,1.37
2022-08-01T08:10:52.944Z,1.30
2022-08-01T08:13:19.885Z,1.50
2022-08-01T08:15:48.792Z,1.53
2022-08-01T08:18:16.238Z,1.60
2022-08-01T08:20:43.358Z,1.43
2022-08-01T08:23:42.909Z,1.37
2022-08-01T08:26:13.529Z,1.27
2022-08-01T08:28:40.849Z,1.30
2022-08-01T08:31:25.645Z,1.20
2022-08-01T08:33:56.307Z,1.47
2022-08-01T08:36:31.405Z,1.37
2022-08-01T08:39:01.518Z,1.33
2022-08-01T08:41:37.752Z,1.40
2022-08-01T08:44:10.861Z,1.30
2022-08-01T08:46:43.510Z,1.37
2022-08-01T08:49:11.718Z,1.60
2022-08-01T08:51:43.570Z,1.80
2022-08-01T08:54:14.330Z,2.20
2022-08-01T08:56:42.916Z,2.23
2022-08-01T08:59:12.366Z,1.50
2022-08-01T09:01:39.390Z,1.70
2022-08-01T09:04:06.892Z,1.50
2022-08-01T09:06:34.261Z,2.00
2022-08-01T09:09:01.393Z,1.80
2022-08-01T09:11:28.295Z,1.83
2022-08-01T09:14:05.851Z,2.20
2022-08-01T09:16:33.958Z,1.90
2022-08-01T09:19:39.794Z,1.63
2022-08-01T09:22:13.131Z,1.80
2022-08-01T09:24:41.808Z,1.90
2022-08-01T09:27:21.745Z,1.80
2022-08-01T09:29:49.866Z,1.67
2022-08-01T09:32:31.428Z,2.10
2022-08-01T09:35:45.498Z,1.93
2022-08-01T09:38:23.958Z,1.60
2022-08-01T09:41:02.077Z,1.60
2022-08-01T09:43:31.248Z,2.00
2022-08-01T09:46:00.000Z,1.90
2022-08-01T09:48:29.536Z,1.90
2022-08-01T09:51:01.254Z,2.10
2022-08-01T09:53:52.374Z,1.87
2022-08-01T09:56:21.799Z,2.03
2022-08-01T09:59:01.418Z,1.50
2022-08-01T10:01:43.358Z,1.77
2022-08-01T10:04:22.010Z,1.77
2022-08-01T10:07:02.961Z,1.73
2022-08-01T10:09:40.901Z,1.60
2022-08-01T10:12:15.608Z,1.60
2022-08-01T10:14:45.969Z,1.80
2022-08-01T10:17:18.296Z,2.17
2022-08-01T10:19:47.476Z,1.50
2022-08-01T10:22:17.775Z,1.87
2022-08-01T10:24:48.824Z,1.60
2022-08-01T10:27:24.510Z,1.93
2022-08-01T10:30:15.516Z,1.87
2022-08-01T10:32:51.102Z,1.63
2022-08-01T10:35:45.910Z,1.90
2022-08-01T10:38:10.917Z,1.60
2022-08-01T10:40:43.025Z,1.53
2022-08-01T10:43:15.248Z,1.40
2022-08-01T10:45:50.107Z,1.40
2022-08-01T10:48:32.496Z,1.23
2022-08-01T10:51:02.554Z,1.20
2022-08-01T10:53:31.936Z,1.40
2022-08-01T10:56:12.758Z,1.17
2022-08-01T10:58:44.349Z,1.10
2022-08-01T11:01:27.902Z,1.00
2022-08-01T11:04:06.645Z,1.13
2022-08-01T11:06:36.434Z,1.40
2022-08-01T11:09:16.441Z,1.00
2022-08-01T11:12:06.259Z,1.10
2022-08-01T11:14:55.295Z,1.30
2022-08-01T11:17:37.643Z,1.00
2022-08-01T11:20:14.473Z,1.00
2022-08-01T11:23:00.133Z,1.27
2022-08-01T11:26:06.061Z,1.00
2022-08-01T11:28:32.762Z,0.90
2022-08-01T11:31:14.127Z,0.90
2022-08-01T11:33:41.513Z,0.97
2022-08-01T11:36:11.999Z,0.60
2022-08-01T11:38:47.495Z,1.00
2022-08-01T11:41:17.635Z,0.93
2022-08-01T11:44:09.201Z,1.00
2022-08-01T11:47:00.285Z,0.80
2022-08-01T11:49:33.720Z,0.90
2022-08-01T11:52:18.669Z,0.77
2022-08-01T11:54:49.474Z,0.73
2022-08-01T11:57:23.197Z,0.97
2022-08-01T12:00:02.370Z,0.80
2022-08-01T12:02:37.389Z,0.90
2022-08-01T12:05:15.243Z,0.90
2022-08-01T12:07:44.325Z,0.70
2022-08-01T12:10:16.184Z,0.87
2022-08-01T12:12:53.941Z,1.30
2022-08-01T12:15:23.863Z,0.80
2022-08-01T12:18:05.636Z,0.90
2022-08-01T12:20:34.998Z,0.80
2022-08-01T12:23:13.365Z,0.70
2022-08-01T12:25:41.296Z,0.80
2022-08-01T12:28:10.180Z,1.10
2022-08-01T12:30:38.822Z,1.00
2022-08-01T12:33:08.768Z,0.93
2022-08-01T12:35:37.551Z,1.07
2022-08-01T12:38:26.077Z,1.07
2022-08-01T12:40:53.589Z,0.90
2022-08-01T12:43:27.939Z,1.10
2022-08-01T12:45:57.453Z,0.90
2022-08-01T12:48:26.371Z,0.80
2022-08-01T12:50:54.479Z,1.00
2022-08-01T12:53:22.603Z,0.90
2022-08-01T12:55:58.029Z,0.80
2022-08-01T12:58:31.588Z,0.70
2022-08-01T13:01:07.931Z,0.70
2022-08-01T13:03:35.325Z,0.87
2022-08-01T13:06:02.599Z,0.90
2022-08-01T13:08:34.643Z,0.80
2022-08-01T13:11:06.525Z,0.80
2022-08-01T13:13:54.269Z,0.90
2022-08-01T13:16:30.202Z,0.70
2022-08-01T13:19:06.847Z,0.90
2022-08-01T13:21:54.174Z,0.90
2022-08-01T13:24:30.888Z,0.90
2022-08-01T13:27:01.242Z,0.90
2022-08-01T13:29:42.377Z,0.93
2022-08-01T13:32:28.453Z,0.90
2022-08-01T13:35:09.555Z,0.83
2022-08-01T13:37:39.052Z,0.73
2022-08-01T13:40:07.547Z,0.90
2022-08-01T13:42:35.481Z,0.90
2022-08-01T13:45:03.739Z,0.87
2022-08-01T13:47:32.503Z,1.03
2022-08-01T13:50:03.798Z,0.70
2022-08-01T13:52:31.810Z,0.93
2022-08-01T13:54:59.233Z,0.90
2022-08-01T13:57:26.315Z,1.00
2022-08-01T14:00:06.640Z,0.80
2022-08-01T14:02:33.588Z,0.80
2022-08-01T14:05:00.494Z,0.80
2022-08-01T14:07:27.403Z,0.73
2022-08-01T14:10:17.629Z,0.80
2022-08-01T14:12:42.562Z,0.90
2022-08-01T14:15:12.779Z,0.90
2022-08-01T14:17:40.616Z,1.10
2022-08-01T14:20:15.191Z,0.87
2022-08-01T14:22:42.014Z,0.80
2022-08-01T14:25:09.598Z,1.10
2022-08-01T14:27:37.348Z,0.90
2022-08-01T14:30:05.671Z,0.80
2022-08-01T14:32:34.366Z,0.90
2022-08-01T14:35:06.924Z,1.00
2022-08-01T14:37:38.248Z,1.03
2022-08-01T14:40:10.487Z,0.70
2022-08-01T14:42:39.253Z,0.83
2022-08-01T14:45:09.805Z,0.90
2022-08-01T14:47:38.423Z,0.80
2022-08-01T14:50:08.226Z,0.90
2022-08-01T14:52:36.271Z,1.00
2022-08-01T14:55:04.271Z,0.70
2022-08-01T14:57:31.218Z,0.77
2022-08-01T14:59:58.107Z,0.80
2022-08-01T15:02:25.077Z,0.80
2022-08-01T15:04:52.263Z,0.70
2022-08-01T15:07:19.511Z,0.70
2022-08-01T15:09:46.707Z,0.87
2022-08-01T15:12:13.643Z,0.80
2022-08-01T15:14:50.047Z,0.70
2022-08-01T15:17:22.784Z,0.90
2022-08-01T15:19:52.898Z,0.90
2022-08-01T15:22:20.804Z,0.90
2022-08-01T15:24:48.558Z,1.00
2022-08-01T15:27:15.827Z,0.83
2022-08-01T15:29:42.914Z,0.80
2022-08-01T15:32:10.106Z,0.77
2022-08-01T15:34:38.481Z,1.00
2022-08-01T15:37:06.441Z,1.03
2022-08-01T15:39:37.687Z,0.90
2022-08-01T15:42:10.273Z,1.17
2022-08-01T15:44:37.606Z,0.90
2022-08-01T15:47:05.097Z,0.90
2022-08-01T15:49:32.827Z,0.90
2022-08-01T15:51:59.745Z,1.00
2022-08-01T15:54:26.870Z,0.80
2022-08-01T15:56:53.743Z,0.97
2022-08-01T15:59:20.747Z,0.80
2022-08-01T16:01:51.250Z,0.80
2022-08-01T16:04:19.573Z,0.70
2022-08-01T16:06:46.938Z,1.00
2022-08-01T16:09:18.545Z,0.93
2022-08-01T16:11:50.953Z,0.80
2022-08-01T16:14:18.502Z,0.80
2022-08-01T16:16:45.491Z,1.00
2022-08-01T16:19:19.484Z,1.13
2022-08-01T16:21:47.869Z,1.10
2022-08-01T16:24:14.978Z,1.10
2022-08-01T16:26:43.179Z,0.90
2022-08-01T16:29:10.192Z,1.00
2022-08-01T16:31:48.045Z,1.00
2022-08-01T16:34:24.110Z,1.00
2022-08-01T16:36:52.750Z,1.03
2022-08-01T16:39:23.365Z,1.13
2022-08-01T16:41:55.205Z,1.03
2022-08-01T16:44:33.398Z,1.00
2022-08-01T16:47:03.905Z,0.90
2022-08-01T16:49:32.187Z,1.10
2022-08-01T16:51:59.465Z,1.00
2022-08-01T16:54:26.726Z,1.17
2022-08-01T16:56:56.072Z,1.20
2022-08-01T16:59:24.919Z,1.50
2022-08-01T17:01:58.411Z,1.20
2022-08-01T17:04:32.563Z,1.63
2022-08-01T17:06:59.505Z,1.50
2022-08-01T17:09:26.391Z,1.40
2022-08-01T17:11:53.299Z,1.40
2022-08-01T17:14:20.240Z,1.13
2022-08-01T17:16:47.127Z,1.70
2022-08-01T17:19:14.766Z,1.30
2022-08-01T17:21:42.262Z,1.50
2022-08-01T17:24:09.615Z,1.30
2022-08-01T17:26:36.519Z,1.37
2022-08-01T17:29:03.789Z,1.57
2022-08-01T17:31:30.642Z,1.50
2022-08-01T17:33:57.534Z,1.80
2022-08-01T17:36:24.545Z,2.30
2022-08-01T17:38:51.504Z,1.30
2022-08-01T17:41:18.407Z,1.70
2022-08-01T17:43:45.315Z,1.67
2022-08-01T17:46:12.276Z,1.23
2022-08-01T17:48:39.177Z,1.70
2022-08-01T17:51:06.616Z,1.87
2022-08-01T17:53:33.822Z,2.43
2022-08-01T17:56:02.557Z,1.67
2022-08-01T17:58:48.914Z,1.90
2022-08-01T18:01:18.428Z,1.80
2022-08-01T18:03:45.906Z,1.87
2022-08-01T18:06:15.699Z,2.10
2022-08-01T18:08:43.507Z,2.00
2022-08-01T18:11:11.415Z,2.30
2022-08-01T18:13:40.609Z,1.70
2022-08-01T18:16:11.101Z,1.90
2022-08-01T18:18:39.198Z,1.93
2022-08-01T18:21:07.023Z,2.00
2022-08-01T18:23:35.185Z,2.17
2022-08-01T18:26:03.028Z,2.37
2022-08-01T18:28:35.420Z,1.80
2022-08-01T18:31:06.132Z,1.80
2022-08-01T18:33:34.324Z,2.37
2022-08-01T18:36:04.122Z,2.00
2022-08-01T18:38:33.144Z,2.00
2022-08-01T18:41:01.497Z,2.13
2022-08-01T18:43:28.494Z,2.27
2022-08-01T18:45:57.511Z,1.80
2022-08-01T18:48:24.761Z,1.80
2022-08-01T18:50:53.929Z,1.87
2022-08-01T18:53:23.796Z,1.97
2022-08-01T18:55:50.811Z,1.87
2022-08-01T18:58:18.583Z,2.20
2022-08-01T19:00:45.595Z,1.73
2022-08-01T19:03:13.759Z,2.13
2022-08-01T19:05:40.821Z,2.20
2022-08-01T19:08:08.215Z,2.00
2022-08-01T19:10:36.531Z,1.80
2022-08-01T19:13:04.030Z,1.83
2022-08-01T19:15:31.730Z,1.87
2022-08-01T19:17:58.711Z,2.30
2022-08-01T19:20:26.021Z,1.87
2022-08-01T19:22:52.938Z,1.80
2022-08-01T19:25:20.171Z,2.40
2022-08-01T19:27:49.252Z,2.80
2022-08-01T19:30:18.479Z,2.60
2022-08-01T19:32:47.476Z,2.60
2022-08-01T19:35:17.253Z,2.60
2022-08-01T19:37:47.096Z,2.80
2022-08-01T19:40:26.330Z,2.53
2022-08-01T19:42:55.638Z,3.23
2022-08-01T19:45:22.947Z,2.80
2022-08-01T19:47:56.719Z,2.90
2022-08-01T19:50:29.075Z,3.20
2022-08-01T19:52:57.750Z,3.30
2022-08-01T19:55:27.097Z,3.17
2022-08-01T19:58:17.210Z,2.90
2022-08-01T20:00:42.938Z,2.90
2022-08-01T20:03:11.331Z,2.57
2022-08-01T20:05:39.121Z,2.53
2022-08-01T20:08:09.986Z,3.10
2022-08-01T20:10:38.345Z,3.53
2022-08-01T20:13:06.626Z,3.20
2022-08-01T20:15:33.580Z,2.90
2022-08-01T20:18:00.569Z,2.20
2022-08-01T20:20:27.765Z,3.20
2022-08-01T20:22:57.500Z,3.03
2022-08-01T20:25:39.592Z,2.67
2022-08-01T20:28:10.862Z,2.80
2022-08-01T20:30:42.327Z,1.93
2022-08-01T20:33:11.776Z,2.47
2022-08-01T20:35:52.061Z,2.73
2022-08-01T20:38:28.919Z,2.47
2022-08-01T20:41:00.131Z,2.40
2022-08-01T20:43:27.933Z,2.33
2022-08-01T20:45:56.052Z,3.10
2022-08-01T20:48:25.440Z,2.67
2022-08-01T20:51:11.072Z,2.07
2022-08-01T20:53:42.157Z,2.83
2022-08-01T20:56:19.810Z,2.80
2022-08-01T20:58:59.055Z,2.17
2022-08-01T21:01:32.845Z,2.27
2022-08-01T21:04:21.433Z,2.63
2022-08-01T21:06:58.581Z,2.77
2022-08-01T21:09:26.813Z,2.63
2022-08-01T21:12:05.293Z,2.90
2022-08-01T21:14:53.404Z,2.97
2022-08-01T21:17:38.799Z,3.23
2022-08-01T21:20:08.041Z,3.40
2022-08-01T21:22:57.378Z,3.20
2022-08-01T21:25:27.546Z,3.87
2022-08-01T21:27:55.622Z,2.87
2022-08-01T21:30:25.106Z,3.20
2022-08-01T21:32:53.589Z,3.20
2022-08-01T21:35:26.155Z,2.93
2022-08-01T21:37:53.868Z,2.77
2022-08-01T21:40:22.532Z,3.30
2022-08-01T21:42:52.570Z,3.00
2022-08-01T21:45:24.861Z,2.70
2022-08-01T21:47:52.359Z,2.80
2022-08-01T21:50:20.174Z,3.57
2022-08-01T21:53:32.080Z,3.57
2022-08-01T21:56:14.702Z,2.90
2022-08-01T21:58:51.793Z,2.43
2022-08-01T22:01:51.516Z,3.00
2022-08-01T22:04:29.443Z,2.60
2022-08-01T22:07:00.214Z,2.57
2022-08-01T22:09:28.528Z,2.47
2022-08-01T22:12:00.889Z,2.87
2022-08-01T22:14:30.006Z,2.93
2022-08-01T22:16:58.811Z,2.80
2022-08-01T22:19:44.071Z,2.63
2022-08-01T22:22:32.398Z,2.97
2022-08-01T22:25:00.276Z,2.80
2022-08-01T22:28:06.222Z,2.73
2022-08-01T22:30:17.584Z,3.20
2022-08-01T22:32:45.997Z,2.87
2022-08-01T22:35:33.654Z,2.80
2022-08-01T22:38:01.431Z,3.00
2022-08-01T22:40:30.030Z,2.83
2022-08-01T22:43:02.342Z,2.73
2022-08-01T22:45:47.709Z,2.77
2022-08-01T22:48:19.591Z,2.60
2022-08-01T22:51:01.592Z,2.60
2022-08-01T22:53:58.056Z,2.97
2022-08-01T22:56:24.992Z,3.00
2022-08-01T22:58:54.304Z,2.80
2022-08-01T23:01:24.654Z,2.80
2022-08-01T23:03:56.922Z,2.50
2022-08-01T23:06:38.599Z,2.57
2022-08-01T23:09:06.362Z,2.47
2022-08-01T23:11:34.643Z,2.50
2022-08-01T23:14:03.720Z,2.70
2022-08-01T23:16:31.536Z,2.77
2022-08-01T23:18:59.676Z,2.83
2022-08-01T23:21:28.586Z,2.53
2022-08-01T23:23:56.821Z,2.43
2022-08-01T23:26:24.095Z,2.30
2022-08-01T23:28:52.066Z,2.50
2022-08-01T23:31:20.514Z,2.90
2022-08-01T23:33:47.374Z,2.40
2022-08-01T23:36:17.413Z,2.50
2022-08-01T23:38:45.157Z,2.30
2022-08-01T23:41:15.100Z,3.10
2022-08-01T23:43:52.383Z,2.87
2022-08-01T23:46:19.594Z,3.20
2022-08-01T23:48:46.475Z,2.37
2022-08-01T23:51:24.031Z,2.37
2022-08-01T23:53:51.919Z,1.50
2022-08-01T23:56:21.007Z,2.63
2022-08-01T23:58:52.324Z,2.03
